sensor_id;sensor_type;location;lat;lon;timestamp;pressure;altitude;pressure_sealevel;temperature;humidity
28181;BME280;15464;50.988;10.318;2023-06-22T00:02:26;99212.19;;;18.91;83.59
28181;BME280;15464;50.988;10.318;2023-06-22T00:04:53;99206.13;;;18.89;83.04
28181;BME280;15464;50.988;10.318;2023-06-22T00:07:19;99204.63;;;18.86;82.88
28181;BME280;15464;50.988;10.318;2023-06-22T00:09:46;99191.72;;;18.82;83.19
28181;BME280;15464;50.988;10.318;2023-06-22T00:12:13;99186.22;;;18.75;83.36
28181;BME280;15464;50.988;10.318;2023-06-22T00:14:39;99196.13;;;18.75;83.62
28181;BME280;15464;50.988;10.318;2023-06-22T00:17:06;99199.19;;;18.72;82.65
28181;BME280;15464;50.988;10.318;2023-06-22T00:19:33;99204.72;;;18.70;83.08
28181;BME280;15464;50.988;10.318;2023-06-22T00:22:02;99214.50;;;18.63;83.92
28181;BME280;15464;50.988;10.318;2023-06-22T00:24:29;99227.28;;;18.61;83.95
28181;BME280;15464;50.988;10.318;2023-06-22T00:26:56;99224.09;;;18.58;83.97
28181;BME280;15464;50.988;10.318;2023-06-22T00:29:23;99212.34;;;18.59;84.98
28181;BME280;15464;50.988;10.318;2023-06-22T00:31:51;99208.16;;;18.56;84.75
28181;BME280;15464;50.988;10.318;2023-06-22T00:34:18;99205.63;;;18.54;83.91
28181;BME280;15464;50.988;10.318;2023-06-22T00:36:44;99209.50;;;18.52;83.98
28181;BME280;15464;50.988;10.318;2023-06-22T00:39:12;99212.50;;;18.49;84.43
28181;BME280;15464;50.988;10.318;2023-06-22T00:41:39;99205.81;;;18.45;83.76
28181;BME280;15464;50.988;10.318;2023-06-22T00:44:05;99206.34;;;18.40;84.27
28181;BME280;15464;50.988;10.318;2023-06-22T00:46:33;99202.81;;;18.40;85.04
28181;BME280;15464;50.988;10.318;2023-06-22T00:49:00;99193.97;;;18.31;85.00
28181;BME280;15464;50.988;10.318;2023-06-22T00:51:26;99195.16;;;18.29;86.09
28181;BME280;15464;50.988;10.318;2023-06-22T00:53:54;99193.66;;;18.26;85.71
28181;BME280;15464;50.988;10.318;2023-06-22T00:56:22;99201.69;;;18.26;85.20
28181;BME280;15464;50.988;10.318;2023-06-22T00:58:51;99199.19;;;18.25;84.71
28181;BME280;15464;50.988;10.318;2023-06-22T01:01:20;99193.34;;;18.21;85.60
28181;BME280;15464;50.988;10.318;2023-06-22T01:03:50;99187.81;;;18.14;85.66
28181;BME280;15464;50.988;10.318;2023-06-22T01:06:26;99189.81;;;18.12;85.69
28181;BME280;15464;50.988;10.318;2023-06-22T01:09:16;99174.91;;;18.10;86.15
28181;BME280;15464;50.988;10.318;2023-06-22T01:12:00;99176.25;;;18.06;85.80
28181;BME280;15464;50.988;10.318;2023-06-22T01:17:05;99172.25;;;18.02;86.12
28181;BME280;15464;50.988;10.318;2023-06-22T01:22:17;99159.38;;;17.97;86.35
28181;BME280;15464;50.988;10.318;2023-06-22T01:29:57;99138.59;;;17.83;87.79
28181;BME280;15464;50.988;10.318;2023-06-22T01:32:31;99120.66;;;17.84;86.56
28181;BME280;15464;50.988;10.318;2023-06-22T01:35:05;99115.28;;;17.84;87.09
28181;BME280;15464;50.988;10.318;2023-06-22T01:37:34;99105.72;;;17.81;87.72
28181;BME280;15464;50.988;10.318;2023-06-22T01:40:02;99097.88;;;17.80;86.86
28181;BME280;15464;50.988;10.318;2023-06-22T01:42:32;99089.16;;;17.78;87.34
28181;BME280;15464;50.988;10.318;2023-06-22T01:45:00;99080.41;;;17.76;86.99
28181;BME280;15464;50.988;10.318;2023-06-22T01:47:28;99084.09;;;17.74;87.11
28181;BME280;15464;50.988;10.318;2023-06-22T01:49:55;99092.69;;;17.70;86.90
28181;BME280;15464;50.988;10.318;2023-06-22T01:52:22;99087.16;;;17.63;88.05
28181;BME280;15464;50.988;10.318;2023-06-22T01:54:49;99090.66;;;17.56;89.06
28181;BME280;15464;50.988;10.318;2023-06-22T01:57:16;99097.56;;;17.58;89.24
28181;BME280;15464;50.988;10.318;2023-06-22T02:02:14;99130.75;;;17.57;89.50
28181;BME280;15464;50.988;10.318;2023-06-22T02:04:51;99133.94;;;17.53;90.69
28181;BME280;15464;50.988;10.318;2023-06-22T02:07:23;99138.13;;;17.55;88.79
28181;BME280;15464;50.988;10.318;2023-06-22T02:09:51;99141.47;;;17.57;88.15
28181;BME280;15464;50.988;10.318;2023-06-22T02:12:22;99165.44;;;17.59;89.23
28181;BME280;15464;50.988;10.318;2023-06-22T02:14:51;99176.38;;;17.65;90.03
28181;BME280;15464;50.988;10.318;2023-06-22T02:17:18;99181.75;;;17.65;91.63
28181;BME280;15464;50.988;10.318;2023-06-22T02:19:45;99184.75;;;17.70;91.55
28181;BME280;15464;50.988;10.318;2023-06-22T02:22:12;99189.09;;;17.71;91.09
28181;BME280;15464;50.988;10.318;2023-06-22T02:24:41;99200.00;;;17.70;90.49
28181;BME280;15464;50.988;10.318;2023-06-22T02:27:08;99213.41;;;17.62;92.77
28181;BME280;15464;50.988;10.318;2023-06-22T02:29:35;99215.41;;;17.60;91.11
28181;BME280;15464;50.988;10.318;2023-06-22T02:32:02;99227.03;;;17.60;91.69
28181;BME280;15464;50.988;10.318;2023-06-22T02:34:29;99237.22;;;17.65;90.52
28181;BME280;15464;50.988;10.318;2023-06-22T02:36:55;99241.75;;;17.64;91.20
28181;BME280;15464;50.988;10.318;2023-06-22T02:39:25;99239.56;;;17.68;91.01
28181;BME280;15464;50.988;10.318;2023-06-22T02:41:54;99252.16;;;17.67;90.32
28181;BME280;15464;50.988;10.318;2023-06-22T02:44:21;99258.19;;;17.69;90.42
28181;BME280;15464;50.988;10.318;2023-06-22T02:46:48;99263.22;;;17.72;91.84
28181;BME280;15464;50.988;10.318;2023-06-22T02:49:15;99265.91;;;17.72;91.76
28181;BME280;15464;50.988;10.318;2023-06-22T02:51:45;99267.91;;;17.70;92.46
28181;BME280;15464;50.988;10.318;2023-06-22T02:54:12;99274.81;;;17.73;92.02
28181;BME280;15464;50.988;10.318;2023-06-22T02:56:39;99274.44;;;17.76;90.91
28181;BME280;15464;50.988;10.318;2023-06-22T02:59:07;99275.28;;;17.77;92.57
28181;BME280;15464;50.988;10.318;2023-06-22T03:01:34;99281.97;;;17.81;92.84
28181;BME280;15464;50.988;10.318;2023-06-22T03:04:07;99283.34;;;17.85;91.95
28181;BME280;15464;50.988;10.318;2023-06-22T03:06:35;99285.03;;;17.86;91.00
28181;BME280;15464;50.988;10.318;2023-06-22T03:09:03;99282.50;;;17.84;89.85
28181;BME280;15464;50.988;10.318;2023-06-22T03:11:31;99281.97;;;17.81;89.91
28181;BME280;15464;50.988;10.318;2023-06-22T03:13:58;99287.03;;;17.84;91.15
28181;BME280;15464;50.988;10.318;2023-06-22T03:16:25;99290.41;;;17.86;90.61
28181;BME280;15464;50.988;10.318;2023-06-22T03:18:52;99287.34;;;17.89;90.47
28181;BME280;15464;50.988;10.318;2023-06-22T03:21:22;99274.28;;;17.86;89.99
28181;BME280;15464;50.988;10.318;2023-06-22T03:23:49;99251.31;;;17.91;92.80
28181;BME280;15464;50.988;10.318;2023-06-22T03:26:17;99202.47;;;17.88;96.85
28181;BME280;15464;50.988;10.318;2023-06-22T03:28:44;99191.44;;;17.74;97.73
28181;BME280;15464;50.988;10.318;2023-06-22T03:31:11;99217.94;;;17.78;96.80
28181;BME280;15464;50.988;10.318;2023-06-22T03:33:38;99206.84;;;17.81;96.44
28181;BME280;15464;50.988;10.318;2023-06-22T03:36:05;99193.28;;;17.82;96.27
28181;BME280;15464;50.988;10.318;2023-06-22T03:38:32;99192.09;;;17.77;97.21
28181;BME280;15464;50.988;10.318;2023-06-22T03:40:59;99189.09;;;17.80;96.82
28181;BME280;15464;50.988;10.318;2023-06-22T03:43:26;99177.34;;;17.81;96.84
28181;BME280;15464;50.988;10.318;2023-06-22T03:45:52;99169.97;;;17.83;96.33
28181;BME280;15464;50.988;10.318;2023-06-22T03:48:19;99169.78;;;17.84;94.84
28181;BME280;15464;50.988;10.318;2023-06-22T03:50:46;99163.44;;;17.85;95.60
28181;BME280;15464;50.988;10.318;2023-06-22T03:53:12;99163.22;;;17.87;96.00
28181;BME280;15464;50.988;10.318;2023-06-22T03:55:48;99159.53;;;17.88;96.50
28181;BME280;15464;50.988;10.318;2023-06-22T03:58:17;99166.94;;;17.86;96.35
28181;BME280;15464;50.988;10.318;2023-06-22T04:00:50;99173.16;;;17.86;97.81
28181;BME280;15464;50.988;10.318;2023-06-22T04:03:18;99165.91;;;17.95;98.04
28181;BME280;15464;50.988;10.318;2023-06-22T04:05:46;99149.09;;;18.01;99.01
28181;BME280;15464;50.988;10.318;2023-06-22T04:08:14;99147.09;;;18.03;98.77
28181;BME280;15464;50.988;10.318;2023-06-22T04:10:41;99149.78;;;18.03;98.15
28181;BME280;15464;50.988;10.318;2023-06-22T04:13:07;99150.44;;;18.05;97.26
28181;BME280;15464;50.988;10.318;2023-06-22T04:15:34;99154.84;;;17.98;100.00
28181;BME280;15464;50.988;10.318;2023-06-22T04:18:01;99154.13;;;18.04;98.71
28181;BME280;15464;50.988;10.318;2023-06-22T04:20:28;99156.28;;;18.08;100.00
28181;BME280;15464;50.988;10.318;2023-06-22T04:22:55;99155.28;;;18.09;100.00
28181;BME280;15464;50.988;10.318;2023-06-22T04:25:22;99149.41;;;18.06;100.00
28181;BME280;15464;50.988;10.318;2023-06-22T04:27:49;99145.72;;;18.07;100.00
28181;BME280;15464;50.988;10.318;2023-06-22T04:30:16;99148.78;;;18.04;100.00
28181;BME280;15464;50.988;10.318;2023-06-22T04:32:44;99155.47;;;18.08;98.70
28181;BME280;15464;50.988;10.318;2023-06-22T04:35:11;99160.13;;;18.14;99.08
28181;BME280;15464;50.988;10.318;2023-06-22T04:37:38;99147.38;;;18.16;99.55
28181;BME280;15464;50.988;10.318;2023-06-22T04:40:06;99146.53;;;18.16;100.00
28181;BME280;15464;50.988;10.318;2023-06-22T04:42:34;99143.00;;;18.23;98.38
28181;BME280;15464;50.988;10.318;2023-06-22T04:45:02;99151.81;;;18.32;97.42
28181;BME280;15464;50.988;10.318;2023-06-22T04:47:29;99155.31;;;18.40;98.59
28181;BME280;15464;50.988;10.318;2023-06-22T04:49:56;99149.25;;;18.46;99.79
28181;BME280;15464;50.988;10.318;2023-06-22T04:52:23;99145.59;;;18.39;100.00
28181;BME280;15464;50.988;10.318;2023-06-22T04:54:51;99150.09;;;18.47;99.33
28181;BME280;15464;50.988;10.318;2023-06-22T04:57:22;99146.84;;;18.51;99.01
28181;BME280;15464;50.988;10.318;2023-06-22T05:00:02;99153.56;;;18.56;97.76
28181;BME280;15464;50.988;10.318;2023-06-22T05:02:39;99153.56;;;18.56;98.91
28181;BME280;15464;50.988;10.318;2023-06-22T05:05:06;99146.47;;;18.63;98.61
28181;BME280;15464;50.988;10.318;2023-06-22T05:07:34;99143.47;;;18.66;98.07
28181;BME280;15464;50.988;10.318;2023-06-22T05:10:02;99141.91;;;18.71;97.42
28181;BME280;15464;50.988;10.318;2023-06-22T05:12:29;99139.53;;;18.76;97.45
28181;BME280;15464;50.988;10.318;2023-06-22T05:14:56;99128.78;;;18.76;98.74
28181;BME280;15464;50.988;10.318;2023-06-22T05:17:24;99131.56;;;18.83;98.56
28181;BME280;15464;50.988;10.318;2023-06-22T05:19:51;99131.03;;;18.87;99.25
28181;BME280;15464;50.988;10.318;2023-06-22T05:22:17;99134.72;;;18.86;100.00
28181;BME280;15464;50.988;10.318;2023-06-22T05:24:46;99128.28;;;18.96;99.45
28181;BME280;15464;50.988;10.318;2023-06-22T05:27:13;99131.38;;;19.07;99.19
28181;BME280;15464;50.988;10.318;2023-06-22T05:29:40;99127.25;;;19.19;99.61
28181;BME280;15464;50.988;10.318;2023-06-22T05:32:07;99117.28;;;19.28;99.53
28181;BME280;15464;50.988;10.318;2023-06-22T05:34:34;99109.13;;;19.36;98.06
28181;BME280;15464;50.988;10.318;2023-06-22T05:37:02;99117.94;;;19.45;98.90
28181;BME280;15464;50.988;10.318;2023-06-22T05:39:29;99121.47;;;19.45;97.03
28181;BME280;15464;50.988;10.318;2023-06-22T05:41:55;99129.69;;;19.52;97.65
28181;BME280;15464;50.988;10.318;2023-06-22T05:44:22;99132.66;;;19.57;97.99
28181;BME280;15464;50.988;10.318;2023-06-22T05:46:49;99130.63;;;19.59;97.08
28181;BME280;15464;50.988;10.318;2023-06-22T05:49:16;99133.31;;;19.59;97.25
28181;BME280;15464;50.988;10.318;2023-06-22T05:51:43;99139.34;;;19.61;96.14
28181;BME280;15464;50.988;10.318;2023-06-22T05:54:10;99129.72;;;19.66;95.92
28181;BME280;15464;50.988;10.318;2023-06-22T05:56:36;99136.66;;;19.76;95.15
28181;BME280;15464;50.988;10.318;2023-06-22T05:59:04;99145.84;;;19.81;94.03
28181;BME280;15464;50.988;10.318;2023-06-22T06:01:30;99149.50;;;19.73;94.46
28181;BME280;15464;50.988;10.318;2023-06-22T06:04:02;99148.84;;;19.86;94.00
28181;BME280;15464;50.988;10.318;2023-06-22T06:06:31;99147.72;;;19.95;93.56
28181;BME280;15464;50.988;10.318;2023-06-22T06:08:58;99146.78;;;19.88;93.47
28181;BME280;15464;50.988;10.318;2023-06-22T06:11:26;99151.72;;;19.85;94.77
28181;BME280;15464;50.988;10.318;2023-06-22T06:13:52;99155.63;;;19.97;95.55
28181;BME280;15464;50.988;10.318;2023-06-22T06:16:19;99143.53;;;20.07;92.92
28181;BME280;15464;50.988;10.318;2023-06-22T06:18:46;99138.25;;;20.14;94.42
28181;BME280;15464;50.988;10.318;2023-06-22T06:21:15;99131.09;;;20.21;93.72
28181;BME280;15464;50.988;10.318;2023-06-22T06:23:42;99135.84;;;20.34;93.25
28181;BME280;15464;50.988;10.318;2023-06-22T06:26:08;99133.03;;;20.42;91.38
28181;BME280;15464;50.988;10.318;2023-06-22T06:28:35;99130.53;;;20.62;91.94
28181;BME280;15464;50.988;10.318;2023-06-22T06:31:02;99129.53;;;20.63;89.02
28181;BME280;15464;50.988;10.318;2023-06-22T06:33:29;99124.75;;;20.79;88.75
28181;BME280;15464;50.988;10.318;2023-06-22T06:35:57;99132.31;;;20.90;88.76
28181;BME280;15464;50.988;10.318;2023-06-22T06:38:24;99129.34;;;21.07;87.70
28181;BME280;15464;50.988;10.318;2023-06-22T06:40:51;99128.06;;;21.17;86.69
28181;BME280;15464;50.988;10.318;2023-06-22T06:43:18;99120.00;;;21.24;87.07
28181;BME280;15464;50.988;10.318;2023-06-22T06:45:44;99125.25;;;21.32;85.83
28181;BME280;15464;50.988;10.318;2023-06-22T06:48:11;99122.66;;;21.45;82.73
28181;BME280;15464;50.988;10.318;2023-06-22T06:50:38;99113.69;;;21.38;83.49
28181;BME280;15464;50.988;10.318;2023-06-22T06:53:05;99116.47;;;21.51;82.59
28181;BME280;15464;50.988;10.318;2023-06-22T06:55:32;99112.19;;;21.63;84.71
28181;BME280;15464;50.988;10.318;2023-06-22T06:57:59;99109.59;;;21.77;85.94
28181;BME280;15464;50.988;10.318;2023-06-22T07:00:26;99109.03;;;21.88;85.19
28181;BME280;15464;50.988;10.318;2023-06-22T07:02:54;99103.91;;;21.99;81.69
28181;BME280;15464;50.988;10.318;2023-06-22T07:05:20;99106.03;;;22.04;82.05
28181;BME280;15464;50.988;10.318;2023-06-22T07:07:47;99104.22;;;22.18;81.48
28181;BME280;15464;50.988;10.318;2023-06-22T07:10:14;99097.47;;;22.41;81.41
28181;BME280;15464;50.988;10.318;2023-06-22T07:12:42;99101.00;;;22.42;82.39
28181;BME280;15464;50.988;10.318;2023-06-22T07:15:09;99094.59;;;22.63;82.67
28181;BME280;15464;50.988;10.318;2023-06-22T07:17:37;99090.75;;;22.85;79.96
28181;BME280;15464;50.988;10.318;2023-06-22T07:20:04;99089.09;;;23.04;77.61
28181;BME280;15464;50.988;10.318;2023-06-22T07:22:44;99091.56;;;23.05;78.11
28181;BME280;15464;50.988;10.318;2023-06-22T07:25:13;99081.59;;;23.25;76.83
28181;BME280;15464;50.988;10.318;2023-06-22T07:27:46;99085.97;;;23.40;76.41
28181;BME280;15464;50.988;10.318;2023-06-22T07:30:22;99082.44;;;23.59;75.96
28181;BME280;15464;50.988;10.318;2023-06-22T07:32:49;99074.84;;;23.94;75.72
28181;BME280;15464;50.988;10.318;2023-06-22T07:35:16;99076.44;;;24.15;73.66
28181;BME280;15464;50.988;10.318;2023-06-22T07:37:43;99069.09;;;24.28;73.40
28181;BME280;15464;50.988;10.318;2023-06-22T07:40:10;99075.06;;;24.43;72.37
28181;BME280;15464;50.988;10.318;2023-06-22T07:42:37;99067.63;;;24.70;70.77
28181;BME280;15464;50.988;10.318;2023-06-22T07:45:04;99063.47;;;24.61;70.78
28181;BME280;15464;50.988;10.318;2023-06-22T07:47:31;99059.94;;;24.67;72.23
28181;BME280;15464;50.988;10.318;2023-06-22T07:50:02;99058.22;;;25.04;72.77
28181;BME280;15464;50.988;10.318;2023-06-22T07:52:29;99061.16;;;25.27;70.99
28181;BME280;15464;50.988;10.318;2023-06-22T07:54:57;99065.47;;;25.60;70.81
28181;BME280;15464;50.988;10.318;2023-06-22T07:57:24;99066.53;;;25.77;68.29
28181;BME280;15464;50.988;10.318;2023-06-22T08:00:00;99065.72;;;25.77;66.32
28181;BME280;15464;50.988;10.318;2023-06-22T08:02:27;99057.19;;;25.91;65.68
28181;BME280;15464;50.988;10.318;2023-06-22T08:04:53;99061.03;;;25.84;65.64
28181;BME280;15464;50.988;10.318;2023-06-22T08:07:40;99053.25;;;25.87;66.62
28181;BME280;15464;50.988;10.318;2023-06-22T08:10:11;99045.00;;;26.30;67.49
28181;BME280;15464;50.988;10.318;2023-06-22T08:12:40;99037.66;;;26.13;66.18
28181;BME280;15464;50.988;10.318;2023-06-22T08:15:07;99037.16;;;26.22;66.61
28181;BME280;15464;50.988;10.318;2023-06-22T08:17:34;99037.00;;;26.35;62.67
28181;BME280;15464;50.988;10.318;2023-06-22T08:20:01;99031.25;;;26.55;63.73
28181;BME280;15464;50.988;10.318;2023-06-22T08:22:29;99028.38;;;26.80;62.67
28181;BME280;15464;50.988;10.318;2023-06-22T08:24:56;99032.03;;;26.74;62.07
28181;BME280;15464;50.988;10.318;2023-06-22T08:27:23;99028.50;;;26.73;62.95
28181;BME280;15464;50.988;10.318;2023-06-22T08:29:50;99039.25;;;26.80;62.24
28181;BME280;15464;50.988;10.318;2023-06-22T08:32:18;99034.91;;;26.79;62.21
28181;BME280;15464;50.988;10.318;2023-06-22T08:34:44;99032.69;;;26.99;60.90
28181;BME280;15464;50.988;10.318;2023-06-22T08:37:11;99032.00;;;26.92;59.37
28181;BME280;15464;50.988;10.318;2023-06-22T08:39:38;99025.63;;;26.98;61.59
28181;BME280;15464;50.988;10.318;2023-06-22T08:42:05;99027.03;;;27.12;60.87
28181;BME280;15464;50.988;10.318;2023-06-22T08:44:32;99028.47;;;27.03;61.54
28181;BME280;15464;50.988;10.318;2023-06-22T08:46:59;99028.13;;;27.23;59.52
28181;BME280;15464;50.988;10.318;2023-06-22T08:49:26;99014.13;;;27.31;58.97
28181;BME280;15464;50.988;10.318;2023-06-22T08:51:52;99017.56;;;27.26;58.91
28181;BME280;15464;50.988;10.318;2023-06-22T08:54:21;99018.41;;;27.15;58.31
28181;BME280;15464;50.988;10.318;2023-06-22T08:56:47;99017.19;;;27.00;59.29
28181;BME280;15464;50.988;10.318;2023-06-22T08:59:14;99013.03;;;26.85;60.01
28181;BME280;15464;50.988;10.318;2023-06-22T09:01:41;99008.44;;;26.98;60.10
28181;BME280;15464;50.988;10.318;2023-06-22T09:04:12;99003.97;;;27.15;59.97
28181;BME280;15464;50.988;10.318;2023-06-22T09:06:39;99002.53;;;27.24;60.93
28181;BME280;15464;50.988;10.318;2023-06-22T09:09:12;99001.22;;;27.26;59.43
28181;BME280;15464;50.988;10.318;2023-06-22T09:11:40;99010.56;;;26.96;60.09
28181;BME280;15464;50.988;10.318;2023-06-22T09:14:06;98998.84;;;27.07;59.18
28181;BME280;15464;50.988;10.318;2023-06-22T09:16:33;99003.34;;;27.01;58.27
28181;BME280;15464;50.988;10.318;2023-06-22T09:19:00;98996.34;;;26.94;59.10
28181;BME280;15464;50.988;10.318;2023-06-22T09:21:27;98979.44;;;27.03;59.69
28181;BME280;15464;50.988;10.318;2023-06-22T09:23:54;98972.94;;;27.04;59.86
28181;BME280;15464;50.988;10.318;2023-06-22T09:26:21;98972.44;;;27.07;60.09
28181;BME280;15464;50.988;10.318;2023-06-22T09:28:50;98975.41;;;26.94;59.60
28181;BME280;15464;50.988;10.318;2023-06-22T09:31:16;98970.78;;;27.06;58.93
28181;BME280;15464;50.988;10.318;2023-06-22T09:33:43;98978.72;;;26.96;59.88
28181;BME280;15464;50.988;10.318;2023-06-22T09:36:10;98979.25;;;26.86;60.01
28181;BME280;15464;50.988;10.318;2023-06-22T09:38:38;98965.13;;;26.96;59.68
28181;BME280;15464;50.988;10.318;2023-06-22T09:41:05;98972.69;;;26.94;59.56
28181;BME280;15464;50.988;10.318;2023-06-22T09:43:32;98971.34;;;26.85;59.53
28181;BME280;15464;50.988;10.318;2023-06-22T09:46:01;98963.56;;;27.00;61.06
28181;BME280;15464;50.988;10.318;2023-06-22T09:48:28;98963.56;;;27.12;60.49
28181;BME280;15464;50.988;10.318;2023-06-22T09:50:58;98961.66;;;27.12;59.05
28181;BME280;15464;50.988;10.318;2023-06-22T09:53:25;98948.06;;;27.12;59.31
28181;BME280;15464;50.988;10.318;2023-06-22T09:55:51;98946.53;;;27.16;58.94
28181;BME280;15464;50.988;10.318;2023-06-22T09:58:18;98941.66;;;26.95;59.12
28181;BME280;15464;50.988;10.318;2023-06-22T10:00:45;98931.09;;;26.87;59.58
28181;BME280;15464;50.988;10.318;2023-06-22T10:03:11;98941.91;;;27.05;60.21
28181;BME280;15464;50.988;10.318;2023-06-22T10:05:39;98941.19;;;27.21;60.09
28181;BME280;15464;50.988;10.318;2023-06-22T10:08:05;98946.28;;;27.29;60.25
28181;BME280;15464;50.988;10.318;2023-06-22T10:10:34;98941.50;;;27.37;59.39
28181;BME280;15464;50.988;10.318;2023-06-22T10:13:08;98946.28;;;27.29;58.54
28181;BME280;15464;50.988;10.318;2023-06-22T10:15:38;98953.63;;;27.41;56.71
28181;BME280;15464;50.988;10.318;2023-06-22T10:18:05;98953.50;;;27.36;58.01
28181;BME280;15464;50.988;10.318;2023-06-22T10:20:32;98955.00;;;27.43;58.30
28181;BME280;15464;50.988;10.318;2023-06-22T10:22:59;98946.97;;;27.60;58.28
28181;BME280;15464;50.988;10.318;2023-06-22T10:25:26;98944.69;;;27.68;56.90
28181;BME280;15464;50.988;10.318;2023-06-22T10:27:53;98954.94;;;27.90;57.78
28181;BME280;15464;50.988;10.318;2023-06-22T10:30:20;98943.97;;;28.01;56.00
28181;BME280;15464;50.988;10.318;2023-06-22T10:32:47;98926.38;;;28.21;55.66
28181;BME280;15464;50.988;10.318;2023-06-22T10:35:14;98929.09;;;28.21;54.96
28181;BME280;15464;50.988;10.318;2023-06-22T10:37:44;98929.09;;;28.21;55.54
28181;BME280;15464;50.988;10.318;2023-06-22T10:40:12;98926.75;;;28.41;55.97
28181;BME280;15464;50.988;10.318;2023-06-22T10:42:39;98928.22;;;28.48;53.66
28181;BME280;15464;50.988;10.318;2023-06-22T10:45:07;98915.25;;;28.39;54.53
28181;BME280;15464;50.988;10.318;2023-06-22T10:47:34;98916.16;;;28.44;53.77
28181;BME280;15464;50.988;10.318;2023-06-22T10:50:02;98914.25;;;28.28;54.93
28181;BME280;15464;50.988;10.318;2023-06-22T10:52:29;98909.38;;;28.47;53.37
28181;BME280;15464;50.988;10.318;2023-06-22T10:54:55;98903.63;;;28.77;53.45
28181;BME280;15464;50.988;10.318;2023-06-22T10:57:22;98905.91;;;29.02;53.33
28181;BME280;15464;50.988;10.318;2023-06-22T10:59:49;98903.75;;;29.04;52.56
28181;BME280;15464;50.988;10.318;2023-06-22T11:02:16;98904.03;;;29.24;51.97
28181;BME280;15464;50.988;10.318;2023-06-22T11:04:42;98889.81;;;29.22;51.37
28181;BME280;15464;50.988;10.318;2023-06-22T11:07:09;98884.13;;;29.45;50.80
28181;BME280;15464;50.988;10.318;2023-06-22T11:09:36;98888.28;;;29.75;50.61
28181;BME280;15464;50.988;10.318;2023-06-22T11:12:05;98886.38;;;29.97;50.23
28181;BME280;15464;50.988;10.318;2023-06-22T11:14:32;98887.16;;;29.71;51.33
28181;BME280;15464;50.988;10.318;2023-06-22T11:17:02;98890.47;;;30.21;50.33
28181;BME280;15464;50.988;10.318;2023-06-22T11:19:29;98890.44;;;30.48;49.76
28181;BME280;15464;50.988;10.318;2023-06-22T11:21:55;98889.25;;;30.39;49.44
28181;BME280;15464;50.988;10.318;2023-06-22T11:24:22;98882.69;;;30.40;49.22
28181;BME280;15464;50.988;10.318;2023-06-22T11:26:49;98879.41;;;30.70;48.45
28181;BME280;15464;50.988;10.318;2023-06-22T11:29:15;98872.19;;;30.59;49.18
28181;BME280;15464;50.988;10.318;2023-06-22T11:32:01;98861.09;;;30.80;48.76
28181;BME280;15464;50.988;10.318;2023-06-22T11:34:28;98861.50;;;30.99;48.01
28181;BME280;15464;50.988;10.318;2023-06-22T11:36:55;98852.94;;;31.33;47.44
28181;BME280;15464;50.988;10.318;2023-06-22T11:39:21;98843.88;;;31.32;47.01
28181;BME280;15464;50.988;10.318;2023-06-22T11:42:04;98838.53;;;31.05;47.77
28181;BME280;15464;50.988;10.318;2023-06-22T11:44:31;98830.50;;;31.46;45.76
28181;BME280;15464;50.988;10.318;2023-06-22T11:46:58;98830.19;;;31.37;45.73
28181;BME280;15464;50.988;10.318;2023-06-22T11:49:27;98823.94;;;31.42;44.78
28181;BME280;15464;50.988;10.318;2023-06-22T11:51:54;98817.31;;;31.33;44.78
28181;BME280;15464;50.988;10.318;2023-06-22T11:54:21;98816.78;;;31.36;44.73
28181;BME280;15464;50.988;10.318;2023-06-22T11:56:47;98810.84;;;31.69;45.09
28181;BME280;15464;50.988;10.318;2023-06-22T11:59:14;98807.06;;;32.00;44.91
28181;BME280;15464;50.988;10.318;2023-06-22T12:01:41;98797.72;;;32.01;43.46
28181;BME280;15464;50.988;10.318;2023-06-22T12:04:07;98781.53;;;31.85;43.77
28181;BME280;15464;50.988;10.318;2023-06-22T12:06:38;98774.66;;;31.92;45.36
28181;BME280;15464;50.988;10.318;2023-06-22T12:09:08;98768.66;;;32.11;43.78
28181;BME280;15464;50.988;10.318;2023-06-22T12:11:35;98765.91;;;32.46;42.38
28181;BME280;15464;50.988;10.318;2023-06-22T12:14:01;98764.81;;;32.37;42.04
28181;BME280;15464;50.988;10.318;2023-06-22T12:16:29;98754.41;;;32.29;41.93
28181;BME280;15464;50.988;10.318;2023-06-22T12:18:55;98749.44;;;32.26;43.23
28181;BME280;15464;50.988;10.318;2023-06-22T12:21:22;98751.03;;;32.57;42.07
28181;BME280;15464;50.988;10.318;2023-06-22T12:23:49;98751.91;;;32.48;43.48
28181;BME280;15464;50.988;10.318;2023-06-22T12:26:16;98749.50;;;33.20;42.50
28181;BME280;15464;50.988;10.318;2023-06-22T12:28:43;98749.72;;;33.24;40.21
28181;BME280;15464;50.988;10.318;2023-06-22T12:31:09;98748.09;;;33.18;40.37
28181;BME280;15464;50.988;10.318;2023-06-22T12:33:36;98738.94;;;32.63;41.66
28181;BME280;15464;50.988;10.318;2023-06-22T12:36:03;98741.19;;;32.31;41.40
28181;BME280;15464;50.988;10.318;2023-06-22T12:38:31;98744.75;;;32.11;42.78
28181;BME280;15464;50.988;10.318;2023-06-22T12:40:58;98745.03;;;31.69;43.03
28181;BME280;15464;50.988;10.318;2023-06-22T12:43:24;98738.44;;;31.65;43.11
28181;BME280;15464;50.988;10.318;2023-06-22T12:45:51;98736.75;;;31.54;42.91
28181;BME280;15464;50.988;10.318;2023-06-22T12:48:18;98731.81;;;31.41;44.11
28181;BME280;15464;50.988;10.318;2023-06-22T12:50:45;98726.84;;;31.28;43.89
28181;BME280;15464;50.988;10.318;2023-06-22T12:53:14;98724.41;;;31.56;43.31
28181;BME280;15464;50.988;10.318;2023-06-22T12:55:40;98708.81;;;31.82;43.08
28181;BME280;15464;50.988;10.318;2023-06-22T12:58:07;98709.09;;;31.81;43.28
28181;BME280;15464;50.988;10.318;2023-06-22T13:00:34;98703.31;;;32.08;43.11
28181;BME280;15464;50.988;10.318;2023-06-22T13:03:01;98687.72;;;31.78;42.71
28181;BME280;15464;50.988;10.318;2023-06-22T13:05:28;98698.28;;;31.23;43.52
28181;BME280;15464;50.988;10.318;2023-06-22T13:07:54;98701.56;;;31.10;44.47